Time;durP1;ratioP1;P1;durP2;ratioP2;P2;SDS_P1;SDS_P2;PMS_P1;PMS_P2;Temp;Humidity;BMP_temperature;BMP_pressure;BME280_temperature;BME280_humidity;BME280_pressure;Samples;Min_cycle;Max_cycle;Signal;HPM_P1;HPM_P2
2022/07/04 00:00:54;;;;;;;11.25;8.38;;;18.90;99.90;;;;;;5071783;28;20025;-55
2022/07/04 00:03:19;;;;;;;11.27;8.68;;;18.90;99.90;;;;;;5071965;28;20020;-53
2022/07/04 00:05:45;;;;;;;10.88;8.68;;;18.80;99.90;;;;;;5071741;28;20051;-54
2022/07/04 00:08:11;;;;;;;12.07;9.63;;;18.70;99.90;;;;;;5070779;28;20029;-55
2022/07/04 00:10:37;;;;;;;13.02;9.57;;;18.70;99.90;;;;;;5070151;28;20044;-54
2022/07/04 00:13:02;;;;;;;14.73;9.98;;;18.70;99.90;;;;;;5069845;28;20058;-54
2022/07/04 00:15:28;;;;;;;13.40;9.52;;;18.50;99.90;;;;;;5071374;28;20064;-56
2022/07/04 00:17:54;;;;;;;15.48;9.40;;;18.50;99.90;;;;;;5072097;28;20025;-55
2022/07/04 00:20:20;;;;;;;14.77;9.65;;;18.50;99.90;;;;;;5071939;28;20024;-55
2022/07/04 00:22:45;;;;;;;13.43;9.25;;;18.40;99.90;;;;;;5072179;28;20379;-54
2022/07/04 00:25:11;;;;;;;9.88;8.45;;;18.40;99.90;;;;;;5072034;28;20456;-56
2022/07/04 00:27:37;;;;;;;13.15;9.35;;;18.40;99.90;;;;;;5072113;28;20514;-56
2022/07/04 00:30:04;;;;;;;12.70;9.10;;;18.20;99.90;;;;;;5072020;28;20428;-56
2022/07/04 00:32:30;;;;;;;12.70;9.02;;;18.20;99.90;;;;;;5071857;28;20025;-56
2022/07/04 00:34:56;;;;;;;11.48;9.43;;;18.20;99.90;;;;;;5071977;28;20734;-55
2022/07/04 00:37:22;;;;;;;11.38;8.93;;;18.10;99.90;;;;;;5071551;28;20043;-55
2022/07/04 00:39:48;;;;;;;12.07;9.05;;;18.10;99.90;;;;;;5071858;28;20771;-54
2022/07/04 00:42:14;;;;;;;14.80;9.38;;;18.10;99.90;;;;;;5071665;28;20023;-55
2022/07/04 00:44:41;;;;;;;13.45;8.93;;;18.00;99.90;;;;;;5071597;28;20029;-55
2022/07/04 00:47:07;;;;;;;12.65;8.90;;;18.00;99.90;;;;;;5071551;28;20044;-55
2022/07/04 00:49:34;;;;;;;9.70;7.97;;;18.10;99.90;;;;;;5071812;28;20036;-55
2022/07/04 00:52:01;;;;;;;13.07;9.10;;;18.00;99.90;;;;;;5071312;28;20111;-54
2022/07/04 00:54:29;;;;;;;13.60;10.40;;;18.00;99.90;;;;;;5071633;28;20032;-54
2022/07/04 00:56:55;;;;;;;14.25;9.52;;;18.00;99.90;;;;;;5071320;28;20032;-55
2022/07/04 00:59:22;;;;;;;12.40;8.50;;;18.00;99.90;;;;;;5071365;28;20821;-55
2022/07/04 01:01:48;;;;;;;11.15;8.20;;;18.00;99.90;;;;;;5069938;28;20131;-55
2022/07/04 01:04:14;;;;;;;12.30;8.82;;;18.00;99.90;;;;;;5070132;28;20024;-54
2022/07/04 01:06:40;;;;;;;16.42;9.43;;;17.90;99.90;;;;;;5069263;28;20407;-54
2022/07/04 01:09:05;;;;;;;12.50;8.63;;;18.00;99.90;;;;;;5070411;28;20035;-54
2022/07/04 01:11:31;;;;;;;11.40;8.80;;;17.90;99.90;;;;;;5070901;28;20049;-54
2022/07/04 01:13:58;;;;;;;11.73;8.75;;;17.80;99.90;;;;;;5071302;28;20029;-55
2022/07/04 01:16:27;;;;;;;12.05;9.40;;;17.80;99.90;;;;;;5071432;28;20052;-55
2022/07/04 01:18:53;;;;;;;11.85;8.80;;;17.80;99.90;;;;;;5069851;28;20055;-55
2022/07/04 01:21:20;;;;;;;11.25;9.70;;;17.70;99.90;;;;;;5070514;28;20103;-55
2022/07/04 01:23:45;;;;;;;12.55;9.57;;;17.70;99.90;;;;;;5070863;28;20037;-55
2022/07/04 01:26:11;;;;;;;14.55;9.38;;;17.70;99.90;;;;;;5071183;28;20037;-54
2022/07/04 01:28:38;;;;;;;10.63;9.00;;;17.50;99.90;;;;;;5071069;28;20021;-55
2022/07/04 01:31:05;;;;;;;13.10;9.20;;;17.40;99.90;;;;;;5070639;28;20082;-55
2022/07/04 01:33:31;;;;;;;13.25;10.27;;;17.40;99.90;;;;;;5070917;28;20099;-55
2022/07/04 01:35:57;;;;;;;13.75;9.65;;;17.50;99.90;;;;;;5071125;28;20124;-55
2022/07/04 01:38:22;;;;;;;11.68;9.13;;;17.40;99.90;;;;;;5070840;28;20046;-54
2022/07/04 01:40:48;;;;;;;15.45;9.40;;;17.30;99.90;;;;;;5069383;28;20033;-54
2022/07/04 01:43:14;;;;;;;13.02;9.57;;;17.30;99.90;;;;;;5070943;28;20020;-54
2022/07/04 01:45:40;;;;;;;10.48;8.43;;;17.20;99.90;;;;;;5070789;28;20499;-54
2022/07/04 01:48:06;;;;;;;14.23;10.38;;;17.30;99.90;;;;;;5068872;28;20434;-54
2022/07/04 01:50:32;;;;;;;12.38;9.50;;;17.10;99.90;;;;;;5070688;28;20420;-54
2022/07/04 01:52:58;;;;;;;11.80;9.95;;;17.00;99.90;;;;;;5072606;28;20115;-55
2022/07/04 01:55:24;;;;;;;12.38;10.07;;;16.80;99.90;;;;;;5070326;28;20024;-55
2022/07/04 01:57:50;;;;;;;13.07;9.57;;;16.80;99.90;;;;;;5070364;28;20077;-55
2022/07/04 02:02:59;;;;;;;12.60;9.13;;;16.80;99.90;;;;;;5070337;28;20082;-55
2022/07/04 02:05:25;;;;;;;15.60;11.18;;;16.90;99.90;;;;;;5070616;28;20025;-55
2022/07/04 02:07:51;;;;;;;18.30;12.02;;;16.90;99.90;;;;;;5073211;28;20044;-54
2022/07/04 02:10:18;;;;;;;18.23;13.68;;;16.90;99.90;;;;;;5070035;28;20100;-54
2022/07/04 02:13:02;;;;;;;18.85;14.57;;;17.00;99.90;;;;;;5070262;28;20082;-56
2022/07/04 02:15:48;;;;;;;18.45;14.07;;;17.00;99.90;;;;;;5070384;28;20036;-56
2022/07/04 02:18:14;;;;;;;22.20;15.98;;;16.80;99.90;;;;;;5070013;28;20025;-55
2022/07/04 02:20:40;;;;;;;19.98;15.00;;;16.90;99.90;;;;;;5070258;28;20017;-55
2022/07/04 02:23:05;;;;;;;20.17;16.08;;;16.80;99.90;;;;;;5068597;28;20111;-55
2022/07/04 02:25:31;;;;;;;22.13;15.95;;;17.00;99.90;;;;;;5070423;28;20434;-55
2022/07/04 02:27:57;;;;;;;23.63;16.08;;;17.00;99.90;;;;;;5069205;28;20040;-56
2022/07/04 02:30:24;;;;;;;23.13;16.02;;;17.00;99.90;;;;;;5070088;28;20044;-55
2022/07/04 02:32:50;;;;;;;18.60;14.32;;;17.00;99.90;;;;;;5070078;28;20025;-56
2022/07/04 02:35:15;;;;;;;18.98;12.98;;;16.80;99.90;;;;;;5070468;28;20029;-54
2022/07/04 02:37:41;;;;;;;15.70;12.32;;;16.60;99.90;;;;;;5069936;28;20048;-55
2022/07/04 02:40:08;;;;;;;18.38;11.40;;;16.50;99.90;;;;;;5070304;28;20037;-55
2022/07/04 02:42:35;;;;;;;18.13;11.03;;;16.60;99.90;;;;;;5070262;28;20379;-55
2022/07/04 02:45:01;;;;;;;15.88;11.43;;;16.60;99.90;;;;;;5070108;28;20025;-55
2022/07/04 02:47:27;;;;;;;18.38;12.00;;;16.70;99.90;;;;;;5070008;28;20626;-56
2022/07/04 02:49:53;;;;;;;15.05;10.90;;;16.60;99.90;;;;;;5070104;28;20039;-56
2022/07/04 02:52:19;;;;;;;13.07;9.57;;;16.70;99.90;;;;;;5069942;28;20400;-55
2022/07/04 02:54:46;;;;;;;15.07;10.75;;;16.60;99.90;;;;;;5070066;28;20024;-56
2022/07/04 02:57:12;;;;;;;15.70;10.00;;;16.70;99.90;;;;;;5069768;28;20033;-56
2022/07/04 02:59:38;;;;;;;15.18;10.13;;;16.60;99.90;;;;;;5071113;28;20147;-56
2022/07/04 03:02:04;;;;;;;14.05;11.10;;;16.60;99.90;;;;;;5073493;28;20488;-56
2022/07/04 03:04:30;;;;;;;16.63;10.38;;;16.70;99.90;;;;;;5072340;28;20020;-55
2022/07/04 03:06:55;;;;;;;13.63;9.90;;;16.70;99.90;;;;;;5073609;28;20041;-56
2022/07/04 03:09:21;;;;;;;18.02;10.73;;;16.80;99.90;;;;;;5073484;28;20024;-55
2022/07/04 03:11:47;;;;;;;22.13;11.18;;;16.70;99.90;;;;;;5073124;28;20127;-55
2022/07/04 03:14:12;;;;;;;16.38;11.13;;;16.70;99.90;;;;;;5073477;28;20024;-55
2022/07/04 03:16:38;;;;;;;13.43;10.35;;;16.80;99.90;;;;;;5073077;28;20461;-56
2022/07/04 03:19:04;;;;;;;15.98;10.85;;;16.80;99.90;;;;;;5073565;28;20437;-55
2022/07/04 03:21:29;;;;;;;13.80;9.73;;;16.90;99.90;;;;;;5073157;28;20068;-55
2022/07/04 03:23:58;;;;;;;14.82;11.10;;;16.90;99.90;;;;;;5073301;28;20028;-55
2022/07/04 03:26:29;;;;;;;14.82;10.35;;;17.00;99.90;;;;;;5073182;28;20044;-55
2022/07/04 03:28:55;;;;;;;16.20;9.57;;;17.00;99.90;;;;;;5073275;28;20017;-55
2022/07/04 03:31:22;;;;;;;17.02;10.02;;;17.00;99.90;;;;;;5073415;28;20035;-56
2022/07/04 03:33:48;;;;;;;13.10;9.70;;;17.00;99.90;;;;;;5073120;28;20028;-55
2022/07/04 03:36:14;;;;;;;15.13;9.75;;;17.00;99.90;;;;;;5073357;28;20082;-55
2022/07/04 03:38:39;;;;;;;13.30;8.27;;;16.90;99.90;;;;;;5072670;28;20024;-55
2022/07/04 03:41:05;;;;;;;13.20;8.90;;;16.90;99.90;;;;;;5072874;28;20060;-55
2022/07/04 03:43:31;;;;;;;12.93;9.40;;;16.90;99.90;;;;;;5073030;28;20024;-55
2022/07/04 03:45:56;;;;;;;12.18;8.98;;;16.80;99.90;;;;;;5072870;28;20024;-56
2022/07/04 03:48:22;;;;;;;16.77;9.98;;;16.90;99.90;;;;;;5072853;28;20376;-56
2022/07/04 03:50:48;;;;;;;12.23;8.63;;;17.00;99.90;;;;;;5072599;28;20024;-55
2022/07/04 03:53:14;;;;;;;14.75;9.23;;;17.00;99.90;;;;;;5072507;28;20024;-55
2022/07/04 03:55:40;;;;;;;12.52;8.95;;;17.00;99.90;;;;;;5072734;28;20028;-55
2022/07/04 03:58:06;;;;;;;16.50;10.50;;;17.10;99.90;;;;;;5072030;28;20103;-56
2022/07/04 04:00:32;;;;;;;13.90;9.57;;;17.10;99.90;;;;;;5071740;28;20078;-55
2022/07/04 04:02:58;;;;;;;12.23;9.52;;;17.10;99.90;;;;;;5071855;28;20028;-55
2022/07/04 04:05:27;;;;;;;16.53;9.30;;;17.20;99.90;;;;;;5071714;28;20028;-56
2022/07/04 04:07:57;;;;;;;12.23;9.15;;;17.20;99.90;;;;;;5072288;28;20298;-55
2022/07/04 04:10:24;;;;;;;13.90;9.93;;;17.20;99.90;;;;;;5072096;28;20029;-55
2022/07/04 04:12:50;;;;;;;15.38;10.27;;;17.20;99.90;;;;;;5071874;28;20027;-55
2022/07/04 04:15:16;;;;;;;14.27;10.05;;;17.30;99.90;;;;;;5072367;28;20033;-55
2022/07/04 04:17:42;;;;;;;14.60;10.00;;;17.30;99.90;;;;;;5072121;28;20050;-55
2022/07/04 04:20:08;;;;;;;12.65;8.60;;;17.40;99.90;;;;;;5072316;28;20550;-56
2022/07/04 04:22:34;;;;;;;13.13;9.87;;;17.50;99.90;;;;;;5072038;28;20029;-54
2022/07/04 04:25:00;;;;;;;14.50;10.70;;;17.50;99.90;;;;;;5071809;28;20343;-54
2022/07/04 04:27:26;;;;;;;13.68;10.50;;;17.60;99.90;;;;;;5071969;28;20116;-55
2022/07/04 04:29:51;;;;;;;11.98;8.77;;;17.60;99.90;;;;;;5072239;28;20425;-55
2022/07/04 04:32:17;;;;;;;16.02;10.10;;;17.70;99.90;;;;;;5071665;28;20025;-54
2022/07/04 04:34:43;;;;;;;13.88;9.18;;;17.80;99.90;;;;;;5071974;28;20103;-55
2022/07/04 04:37:08;;;;;;;13.23;9.48;;;17.90;99.90;;;;;;5071885;28;20021;-55
2022/07/04 04:39:34;;;;;;;15.07;11.23;;;18.00;99.90;;;;;;5071789;28;20021;-55
2022/07/04 04:42:00;;;;;;;15.60;10.25;;;18.00;99.90;;;;;;5071613;28;20033;-54
2022/07/04 04:44:25;;;;;;;18.55;11.40;;;18.10;99.90;;;;;;5071625;28;20024;-54
2022/07/04 04:46:51;;;;;;;15.20;11.75;;;18.20;99.90;;;;;;5071553;28;20040;-54
2022/07/04 04:49:18;;;;;;;16.20;11.15;;;18.20;99.90;;;;;;5071451;28;20484;-55
2022/07/04 04:51:44;;;;;;;13.90;11.32;;;18.30;99.90;;;;;;5071474;28;20111;-54
2022/07/04 04:54:10;;;;;;;18.58;12.48;;;18.30;99.90;;;;;;5071384;28;20112;-55
2022/07/04 04:56:36;;;;;;;20.23;12.77;;;18.40;99.90;;;;;;5071503;28;20059;-55
2022/07/04 04:59:01;;;;;;;22.17;14.60;;;18.50;99.90;;;;;;5070258;28;20306;-55
2022/07/04 05:01:27;;;;;;;18.10;14.88;;;18.60;99.90;;;;;;5071514;28;20050;-56
2022/07/04 05:03:53;;;;;;;21.80;17.33;;;18.70;99.90;;;;;;5071464;28;20403;-56
2022/07/04 05:06:19;;;;;;;22.42;18.50;;;18.70;99.90;;;;;;5071234;28;20353;-54
2022/07/04 05:08:45;;;;;;;30.02;21.00;;;18.80;99.90;;;;;;5071371;28;20097;-55
2022/07/04 05:11:10;;;;;;;30.30;23.75;;;18.80;99.90;;;;;;5070977;28;20148;-55
2022/07/04 05:13:36;;;;;;;33.35;26.40;;;18.90;99.90;;;;;;5071142;28;20070;-54
2022/07/04 05:16:02;;;;;;;33.20;29.42;;;18.90;99.90;;;;;;5071013;28;20103;-55
2022/07/04 05:18:28;;;;;;;38.28;32.40;;;18.90;99.90;;;;;;5070945;28;20125;-55
2022/07/04 05:20:54;;;;;;;38.90;32.67;;;19.00;99.90;;;;;;5070984;28;20074;-55
2022/07/04 05:23:20;;;;;;;39.22;34.65;;;19.10;99.90;;;;;;5063673;28;20036;-55
2022/07/04 05:25:47;;;;;;;36.95;32.28;;;19.10;99.90;;;;;;5064574;28;20059;-54
2022/07/04 05:28:13;;;;;;;33.00;29.50;;;19.20;99.90;;;;;;5071157;28;20032;-55
2022/07/04 05:30:38;;;;;;;37.67;29.15;;;19.20;99.90;;;;;;5070793;28;20496;-57
2022/07/04 05:33:04;;;;;;;39.40;30.80;;;19.30;99.90;;;;;;5070490;28;20066;-54
2022/07/04 05:35:31;;;;;;;35.55;31.35;;;19.40;99.90;;;;;;5060634;28;20035;-54
2022/07/04 05:37:57;;;;;;;37.63;33.72;;;19.40;99.90;;;;;;5064768;28;20119;-54
2022/07/04 05:40:23;;;;;;;36.17;32.33;;;19.50;99.90;;;;;;5065683;28;20043;-53
2022/07/04 05:42:48;;;;;;;39.75;35.55;;;19.60;99.90;;;;;;5068814;28;20032;-53
2022/07/04 05:45:15;;;;;;;42.33;38.03;;;19.60;99.90;;;;;;5063408;28;20528;-54
2022/07/04 05:47:41;;;;;;;40.30;36.03;;;19.70;99.90;;;;;;5060849;28;20146;-54
2022/07/04 05:50:07;;;;;;;35.67;31.73;;;19.80;99.90;;;;;;5050457;28;20132;-54
2022/07/04 05:52:33;;;;;;;35.23;31.73;;;19.90;99.90;;;;;;5050343;28;20029;-54
2022/07/04 05:54:59;;;;;;;34.78;31.15;;;20.00;99.90;;;;;;5049819;28;20036;-54
2022/07/04 05:57:24;;;;;;;31.95;27.10;;;20.10;99.90;;;;;;5050108;28;20040;-54
2022/07/04 05:59:50;;;;;;;29.33;24.85;;;20.20;99.90;;;;;;5055536;28;20039;-55
2022/07/04 06:02:16;;;;;;;27.65;23.42;;;20.30;99.90;;;;;;5070272;28;20035;-56
2022/07/04 06:04:43;;;;;;;26.33;21.73;;;20.40;99.90;;;;;;5070493;28;20047;-55
2022/07/04 06:07:09;;;;;;;25.42;22.75;;;20.50;99.90;;;;;;5068513;28;20461;-55
2022/07/04 06:09:35;;;;;;;26.02;23.15;;;20.50;99.90;;;;;;5068202;28;20028;-55
2022/07/04 06:12:01;;;;;;;29.33;23.45;;;20.60;99.90;;;;;;5069344;28;20049;-54
2022/07/04 06:14:27;;;;;;;26.65;23.58;;;20.60;99.90;;;;;;5069956;28;20036;-54
2022/07/04 06:16:53;;;;;;;27.90;24.88;;;20.70;99.90;;;;;;5069731;28;20040;-54
2022/07/04 06:19:18;;;;;;;29.20;24.40;;;20.80;99.90;;;;;;5068498;28;20029;-55
2022/07/04 06:21:44;;;;;;;28.55;25.20;;;20.90;99.90;;;;;;5069588;28;20029;-54
2022/07/04 06:24:10;;;;;;;26.90;24.23;;;20.90;99.90;;;;;;5069934;28;20464;-54
2022/07/04 06:26:35;;;;;;;25.75;22.83;;;21.10;99.90;;;;;;5068969;28;20484;-54
2022/07/04 06:29:01;;;;;;;24.60;20.63;;;21.20;99.90;;;;;;5069670;28;20025;-54
2022/07/04 06:31:27;;;;;;;24.92;20.13;;;21.30;99.90;;;;;;5061932;28;20033;-54
2022/07/04 06:36:37;;;;;;;25.67;16.27;;;21.50;99.90;;;;;;5063269;28;20146;-55
2022/07/04 06:39:02;;;;;;;23.58;16.50;;;21.70;99.90;;;;;;5061610;28;20621;-55
2022/07/04 06:41:28;;;;;;;18.50;14.60;;;21.70;99.90;;;;;;5063075;28;20036;-55
2022/07/04 06:43:54;;;;;;;21.95;14.90;;;21.80;99.90;;;;;;5062847;28;20040;-53
2022/07/04 06:46:20;;;;;;;25.10;15.93;;;22.00;99.90;;;;;;5061929;28;20025;-55
2022/07/04 06:48:46;;;;;;;24.55;16.23;;;22.10;99.90;;;;;;5067960;28;20043;-55
2022/07/04 06:51:13;;;;;;;22.77;16.63;;;22.10;99.90;;;;;;5073725;28;20029;-55
2022/07/04 06:53:41;;;;;;;18.40;15.05;;;22.10;99.90;;;;;;5073712;28;20170;-55
2022/07/04 06:56:07;;;;;;;25.73;15.73;;;22.30;99.90;;;;;;5073612;28;20435;-55
2022/07/04 06:58:32;;;;;;;17.52;13.43;;;22.40;99.90;;;;;;5072403;28;20059;-55
2022/07/04 07:00:58;;;;;;;20.98;15.57;;;22.60;99.90;;;;;;5073661;28;20020;-55
2022/07/04 07:03:24;;;;;;;20.85;15.18;;;22.60;99.90;;;;;;5073678;28;20021;-55
2022/07/04 07:05:49;;;;;;;17.15;14.43;;;22.80;99.90;;;;;;5073513;28;20033;-55
2022/07/04 07:08:15;;;;;;;17.98;13.93;;;22.80;99.90;;;;;;5072022;28;20021;-56
2022/07/04 07:10:41;;;;;;;20.58;14.95;;;22.80;99.90;;;;;;5072579;28;20434;-55
2022/07/04 07:13:06;;;;;;;18.85;14.85;;;23.00;99.90;;;;;;5073221;28;20039;-56
2022/07/04 07:15:35;;;;;;;22.55;14.05;;;23.10;99.90;;;;;;5073192;28;20028;-55
2022/07/04 07:18:01;;;;;;;19.58;15.25;;;23.20;99.90;;;;;;5072980;28;20028;-54
2022/07/04 07:20:27;;;;;;;22.48;13.25;;;23.20;99.90;;;;;;5071798;28;20135;-55
2022/07/04 07:22:53;;;;;;;22.85;14.68;;;23.20;99.90;;;;;;5073432;28;20151;-55
2022/07/04 07:25:18;;;;;;;20.77;14.50;;;23.40;99.90;;;;;;5073046;28;20036;-54
2022/07/04 07:27:44;;;;;;;18.00;12.45;;;23.50;99.90;;;;;;5073165;28;20040;-55
2022/07/04 07:30:10;;;;;;;18.65;14.85;;;23.50;99.90;;;;;;5073166;28;20047;-55
2022/07/04 07:32:36;;;;;;;19.25;14.73;;;23.50;99.90;;;;;;5073053;28;20028;-54
2022/07/04 07:35:02;;;;;;;17.83;13.57;;;23.50;99.90;;;;;;5073141;28;20035;-55
2022/07/04 07:37:28;;;;;;;18.45;13.25;;;23.60;99.90;;;;;;5073365;28;20021;-55
2022/07/04 07:39:54;;;;;;;19.05;13.70;;;23.60;99.90;;;;;;5073034;28;20476;-55
2022/07/04 07:42:22;;;;;;;21.08;13.63;;;23.60;99.90;;;;;;5073031;28;20027;-54
2022/07/04 07:44:48;;;;;;;18.60;12.38;;;23.80;99.90;;;;;;5073014;28;20028;-55
2022/07/04 07:47:15;;;;;;;16.60;12.43;;;24.00;99.90;;;;;;5071482;28;20040;-55
2022/07/04 07:49:41;;;;;;;17.60;12.70;;;24.10;99.90;;;;;;5072855;28;20040;-55
2022/07/04 07:52:07;;;;;;;14.65;12.32;;;24.10;99.90;;;;;;5072935;28;20032;-55
2022/07/04 07:54:33;;;;;;;13.98;10.73;;;24.00;99.90;;;;;;5073010;28;20036;-55
2022/07/04 07:56:59;;;;;;;20.90;11.35;;;24.10;99.90;;;;;;5073088;28;20032;-55
2022/07/04 07:59:24;;;;;;;14.10;11.27;;;24.10;99.90;;;;;;5072933;28;20634;-55
2022/07/04 08:01:50;;;;;;;12.48;9.57;;;24.20;99.90;;;;;;5072565;28;20024;-55
2022/07/04 08:04:37;;;;;;;12.52;9.65;;;24.30;99.90;;;;;;5072926;28;20032;-54
2022/07/04 08:07:04;;;;;;;13.45;10.88;;;24.30;99.90;;;;;;5071964;28;20086;-55
2022/07/04 08:09:31;;;;;;;18.60;10.02;;;24.40;99.90;;;;;;5072552;28;20032;-55
2022/07/04 08:11:57;;;;;;;13.38;10.35;;;24.40;99.90;;;;;;5072262;28;20045;-56
2022/07/04 08:14:23;;;;;;;15.70;11.32;;;24.50;99.90;;;;;;5071154;28;20123;-55
2022/07/04 08:16:49;;;;;;;9.73;8.70;;;24.70;99.90;;;;;;5072433;28;20481;-55
2022/07/04 08:19:15;;;;;;;9.43;7.47;;;24.70;99.90;;;;;;5072436;28;20016;-55
2022/07/04 08:21:40;;;;;;;10.10;8.63;;;24.80;99.90;;;;;;5070906;28;20045;-55
2022/07/04 08:24:06;;;;;;;13.18;6.90;;;25.00;99.90;;;;;;5072237;28;20139;-55
2022/07/04 08:26:32;;;;;;;10.65;8.18;;;25.10;99.00;;;;;;5072172;28;20119;-55
2022/07/04 08:28:59;;;;;;;10.30;7.22;;;25.20;98.40;;;;;;5072264;28;20052;-55
2022/07/04 08:31:28;;;;;;;13.75;7.80;;;25.30;98.50;;;;;;5072199;28;20028;-55
2022/07/04 08:33:53;;;;;;;12.13;7.57;;;25.40;99.70;;;;;;5070827;28;20036;-55
2022/07/04 08:36:20;;;;;;;10.65;6.50;;;25.50;95.70;;;;;;5062474;28;20017;-55
2022/07/04 08:38:46;;;;;;;11.85;7.00;;;25.50;96.00;;;;;;5061618;28;20054;-55
2022/07/04 08:41:14;;;;;;;10.45;6.70;;;25.60;94.90;;;;;;5060574;28;20013;-55
2022/07/04 08:43:41;;;;;;;14.20;7.00;;;25.60;94.60;;;;;;5059545;28;20025;-55
2022/07/04 08:46:09;;;;;;;10.15;6.50;;;25.80;92.80;;;;;;5061142;28;20036;-55
2022/07/04 08:48:37;;;;;;;7.55;5.82;;;25.90;92.90;;;;;;5060935;28;20056;-55
2022/07/04 08:51:18;;;;;;;7.65;5.75;;;25.90;90.90;;;;;;5059478;28;20439;-55
2022/07/04 08:53:56;;;;;;;11.25;6.80;;;25.90;91.20;;;;;;5059133;28;20785;-55
2022/07/04 08:59:07;;;;;;;12.52;7.30;;;25.90;92.90;;;;;;5059969;28;20808;-55
2022/07/04 09:01:34;;;;;;;9.00;6.33;;;26.00;92.90;;;;;;5059784;28;20547;-56
2022/07/04 09:04:01;;;;;;;7.57;6.00;;;26.20;91.50;;;;;;5061221;28;20302;-55
2022/07/04 09:06:29;;;;;;;8.63;6.13;;;26.30;90.40;;;;;;5059848;28;20066;-55
2022/07/04 09:08:55;;;;;;;8.00;5.68;;;26.30;87.20;;;;;;5060043;28;20017;-55
2022/07/04 09:11:21;;;;;;;8.40;5.40;;;26.10;86.40;;;;;;5060004;28;20101;-55
2022/07/04 09:13:48;;;;;;;8.10;6.18;;;26.20;89.70;;;;;;5058406;28;20092;-55
2022/07/04 09:16:14;;;;;;;8.88;6.20;;;26.30;89.00;;;;;;5061093;28;20063;-55
2022/07/04 09:18:40;;;;;;;8.82;6.28;;;26.30;90.30;;;;;;5059168;28;20017;-55
2022/07/04 09:21:07;;;;;;;8.18;6.38;;;26.30;88.30;;;;;;5059919;28;20021;-55
2022/07/04 09:23:38;;;;;;;9.75;5.80;;;26.30;91.00;;;;;;5061280;28;20060;-55
2022/07/04 09:26:08;;;;;;;8.82;5.90;;;26.50;89.70;;;;;;5059522;28;20112;-55
2022/07/04 09:28:34;;;;;;;9.50;5.88;;;26.50;87.10;;;;;;5058853;28;20029;-56
2022/07/04 09:31:00;;;;;;;7.25;5.60;;;26.50;86.00;;;;;;5064478;28;20036;-55
2022/07/04 09:33:49;;;;;;;8.57;6.03;;;26.70;90.30;;;;;;5070424;28;20032;-56
2022/07/04 09:36:17;;;;;;;7.70;4.72;;;26.70;88.20;;;;;;5070610;28;20028;-55
2022/07/04 09:38:43;;;;;;;11.68;5.05;;;26.90;80.30;;;;;;5070668;28;20024;-55
2022/07/04 09:41:24;;;;;;;6.65;4.47;;;26.90;80.60;;;;;;5070542;28;20047;-55
2022/07/04 09:44:04;;;;;;;8.18;4.53;;;27.00;79.90;;;;;;5070474;28;20465;-56
2022/07/04 09:46:30;;;;;;;9.80;4.90;;;27.20;82.90;;;;;;5070349;28;20024;-56
2022/07/04 09:48:56;;;;;;;10.18;4.80;;;27.00;84.10;;;;;;5070450;28;20054;-56
2022/07/04 09:51:41;;;;;;;6.90;4.43;;;27.00;80.90;;;;;;5070382;28;20028;-56
2022/07/04 09:54:24;;;;;;;6.75;4.80;;;27.00;81.70;;;;;;5069722;28;20052;-57
2022/07/04 09:56:53;;;;;;;9.15;4.68;;;27.20;85.30;;;;;;5069926;28;20070;-55
2022/07/04 09:59:20;;;;;;;6.90;4.55;;;27.20;77.20;;;;;;5070463;28;20036;-56
2022/07/04 10:01:47;;;;;;;6.60;4.43;;;27.20;77.20;;;;;;5070159;28;20028;-55
2022/07/04 10:04:13;;;;;;;5.97;4.28;;;27.20;76.30;;;;;;5070407;28;20095;-54
2022/07/04 10:06:41;;;;;;;15.50;5.23;;;27.30;79.60;;;;;;5070171;28;20040;-54
2022/07/04 10:09:15;;;;;;;7.93;5.63;;;27.40;82.90;;;;;;5069911;28;20151;-53
2022/07/04 10:11:42;;;;;;;41.40;8.38;;;27.50;79.60;;;;;;5067797;28;20082;-53
2022/07/04 10:14:09;;;;;;;12.13;4.88;;;27.50;80.20;;;;;;5068990;28;20028;-53
2022/07/04 10:16:36;;;;;;;;;;;27.60;81.10;;;;;;5069676;28;20021;-54
2022/07/04 10:19:02;;;;;;;11.82;5.93;;;27.60;80.30;;;;;;5068785;28;20360;-56
2022/07/04 10:21:29;;;;;;;10.50;5.00;;;27.50;79.10;;;;;;5070116;28;20032;-55
2022/07/04 10:23:55;;;;;;;13.50;5.75;;;27.50;79.20;;;;;;5070062;28;20033;-55
2022/07/04 10:26:22;;;;;;;14.38;5.60;;;27.60;80.80;;;;;;5069989;28;20086;-56
2022/07/04 10:28:51;;;;;;;37.25;6.72;;;27.30;78.20;;;;;;5069007;28;20032;-54
2022/07/04 10:31:20;;;;;;;31.33;6.13;;;27.40;79.70;;;;;;5069839;28;20702;-54
2022/07/04 10:33:46;;;;;;;19.70;8.60;;;27.30;78.70;;;;;;5070077;28;20034;-54
2022/07/04 10:36:22;;;;;;;13.65;5.28;;;27.40;78.30;;;;;;5069679;28;20038;-53
2022/07/04 10:38:51;;;;;;;6.55;5.00;;;27.40;80.40;;;;;;5069484;28;20032;-53
2022/07/04 10:41:20;;;;;;;6.85;4.35;;;27.60;81.90;;;;;;5069951;28;20078;-54
2022/07/04 10:44:04;;;;;;;9.32;4.70;;;27.50;77.10;;;;;;5069780;28;20509;-54
2022/07/04 10:46:31;;;;;;;7.00;3.75;;;27.70;79.80;;;;;;5069521;28;20025;-54
2022/07/04 10:48:58;;;;;;;10.32;4.25;;;27.80;77.80;;;;;;5069884;28;20016;-55
2022/07/04 10:51:44;;;;;;;6.45;4.50;;;28.00;77.70;;;;;;5069921;28;20028;-55
2022/07/04 10:54:17;;;;;;;8.10;5.10;;;28.00;82.40;;;;;;5069068;28;20059;-54
2022/07/04 10:56:45;;;;;;;9.52;4.75;;;28.30;80.50;;;;;;5069664;28;20017;-55
2022/07/04 10:59:15;;;;;;;10.95;4.70;;;28.40;75.80;;;;;;5069731;28;20157;-53
2022/07/04 11:01:48;;;;;;;9.10;4.57;;;28.10;75.10;;;;;;5069640;28;20046;-54
2022/07/04 11:04:54;;;;;;;10.05;4.72;;;28.40;78.00;;;;;;5067133;28;20039;-54
2022/07/04 11:07:40;;;;;;;18.95;8.20;;;28.40;75.10;;;;;;5067838;28;20028;-52
2022/07/04 11:10:16;;;;;;;12.93;8.38;;;28.60;76.40;;;;;;5068871;28;20023;-52
2022/07/04 11:12:56;;;;;;;31.08;11.07;;;28.70;75.70;;;;;;5068177;28;20041;-54
2022/07/04 11:15:28;;;;;;;7.70;3.85;;;29.10;75.80;;;;;;5068127;28;20032;-54
2022/07/04 11:18:02;;;;;;;11.05;6.47;;;29.10;73.50;;;;;;5060008;28;20468;-54
2022/07/04 11:20:33;;;;;;;5.18;3.70;;;29.10;75.60;;;;;;5059951;28;20047;-55
2022/07/04 11:23:11;;;;;;;9.68;5.18;;;29.20;74.50;;;;;;5072281;28;20013;-55
2022/07/04 11:25:39;;;;;;;5.72;3.78;;;29.10;74.60;;;;;;5071246;28;20028;-55
2022/07/04 11:28:25;;;;;;;11.43;4.43;;;29.10;75.50;;;;;;5071428;28;20047;-54
2022/07/04 11:30:51;;;;;;;7.85;3.97;;;29.10;73.70;;;;;;5070412;28;20063;-55
2022/07/04 11:33:23;;;;;;;4.17;3.20;;;29.00;79.90;;;;;;5071762;28;20043;-55
2022/07/04 11:36:19;;;;;;;14.93;5.03;;;29.20;74.40;;;;;;5071684;28;20762;-56
2022/07/04 11:38:47;;;;;;;3.72;2.95;;;29.40;73.30;;;;;;5071928;28;20028;-56
2022/07/04 11:46:46;;;;;;;;;;;29.20;69.90;;;;;;5073640;28;20429;-56
2022/07/04 11:49:12;;;;;;;7.18;3.85;;;29.10;69.00;;;;;;5072820;28;19912;-57
2022/07/04 11:51:43;;;;;;;6.22;4.13;;;28.90;71.40;;;;;;5071699;28;20232;-56
2022/07/04 11:54:09;;;;;;;4.93;3.05;;;29.30;71.80;;;;;;5071925;28;20066;-57
2022/07/04 11:56:35;;;;;;;5.77;3.67;;;29.60;69.30;;;;;;5073165;28;20042;-58
2022/07/04 11:59:11;;;;;;;7.78;4.20;;;29.90;70.30;;;;;;5073127;28;20611;-57
2022/07/04 12:01:37;;;;;;;10.23;4.43;;;30.10;76.40;;;;;;5073635;28;20060;-56
2022/07/04 12:04:19;;;;;;;5.53;3.78;;;30.40;72.50;;;;;;5072036;28;20036;-57
2022/07/04 12:06:47;;;;;;;4.75;3.92;;;30.50;71.60;;;;;;5073265;28;20040;-57
2022/07/04 12:09:14;;;;;;;7.30;3.60;;;30.90;74.90;;;;;;5072213;28;20479;-57
2022/07/04 12:11:59;;;;;;;11.10;4.10;;;31.00;74.20;;;;;;5069225;28;20041;-57
2022/07/04 12:14:26;;;;;;;5.53;3.83;;;31.20;69.90;;;;;;5069927;28;20027;-58
2022/07/04 12:17:15;;;;;;;6.28;4.05;;;31.20;69.00;;;;;;5070376;28;20077;-57
2022/07/04 12:20:12;;;;;;;9.57;4.15;;;31.10;64.60;;;;;;5070463;28;20040;-57
2022/07/04 12:22:44;;;;;;;5.00;4.00;;;31.20;67.50;;;;;;5057873;28;20029;-56
2022/07/04 12:25:32;;;;;;;5.35;3.35;;;31.60;65.30;;;;;;5071827;28;20028;-57
2022/07/04 12:27:58;;;;;;;6.75;3.28;;;31.40;64.60;;;;;;5072988;28;20043;-58
2022/07/04 12:30:26;;;;;;;;;;;30.90;63.70;;;;;;5073342;28;20021;-59
2022/07/04 12:33:03;;;;;;;4.30;3.73;;;30.50;63.30;;;;;;5071438;28;20367;-57
2022/07/04 12:35:40;;;;;;;4.30;3.55;;;30.30;63.10;;;;;;5072986;28;20302;-57
2022/07/04 12:38:12;;;;;;;5.22;3.58;;;30.30;66.40;;;;;;5073040;28;20108;-57
2022/07/04 12:41:06;;;;;;;6.30;3.83;;;30.50;67.00;;;;;;5072653;28;20435;-57
2022/07/04 12:43:43;;;;;;;4.03;3.13;;;30.30;67.10;;;;;;5072917;28;20095;-57
2022/07/04 12:46:09;;;;;;;5.78;3.70;;;30.40;66.30;;;;;;5072535;28;20032;-57
2022/07/04 12:48:35;;;;;;;4.68;3.58;;;30.60;68.80;;;;;;5072801;28;20058;-56
2022/07/04 12:51:15;;;;;;;4.25;3.58;;;30.60;69.60;;;;;;5072395;28;20480;-58
2022/07/04 12:53:43;;;;;;;4.30;3.40;;;31.00;71.20;;;;;;5072437;28;20028;-56